Time;durP1;ratioP1;P1;durP2;ratioP2;P2;SDS_P1;SDS_P2;PMS_P1;PMS_P2;Temp;Humidity;BMP_temperature;BMP_pressure;BME280_temperature;BME280_humidity;BME280_pressure;Samples;Min_cycle;Max_cycle;Signal;HPM_P1;HPM_P2
2022/09/08 00:02:08;;;;;;;23.88;20.08;;;15.60;96.90;;;;;;4973184;28;20031;-74
2022/09/08 00:04:34;;;;;;;26.98;21.20;;;15.60;96.90;;;;;;4972305;28;20035;-74
2022/09/08 00:07:01;;;;;;;25.15;20.02;;;15.60;96.90;;;;;;4975397;28;20035;-74
2022/09/08 00:09:30;;;;;;;25.05;20.67;;;15.50;96.90;;;;;;4973299;28;20090;-74
2022/09/08 00:11:57;;;;;;;29.92;20.98;;;15.50;97.00;;;;;;4971242;28;20034;-74
2022/09/08 00:14:23;;;;;;;25.02;20.05;;;15.50;97.00;;;;;;4967096;28;21648;-74
2022/09/08 00:16:48;;;;;;;25.33;19.40;;;15.50;96.80;;;;;;4969253;28;20034;-74
2022/09/08 00:19:14;;;;;;;24.23;19.02;;;15.40;96.80;;;;;;4970157;28;20023;-74
2022/09/08 00:21:39;;;;;;;23.27;18.42;;;15.40;96.80;;;;;;4956089;28;20154;-74
2022/09/08 00:24:05;;;;;;;24.23;19.15;;;15.30;96.80;;;;;;4959999;28;20033;-74
2022/09/08 00:26:30;;;;;;;22.30;18.17;;;15.20;96.80;;;;;;4969370;28;20084;-74
2022/09/08 00:28:57;;;;;;;22.60;18.30;;;15.10;96.70;;;;;;4966296;28;20033;-74
2022/09/08 00:31:22;;;;;;;23.50;18.38;;;15.10;96.70;;;;;;4971721;28;20018;-74
2022/09/08 00:33:48;;;;;;;22.15;18.67;;;15.10;96.60;;;;;;4955308;28;20033;-74
2022/09/08 00:36:15;;;;;;;23.83;19.20;;;15.00;96.70;;;;;;4969861;28;20399;-74
2022/09/08 00:38:41;;;;;;;24.58;19.25;;;15.00;96.70;;;;;;4957892;28;20039;-74
2022/09/08 00:41:12;;;;;;;24.17;19.33;;;15.00;96.80;;;;;;4972121;28;20023;-74
2022/09/08 00:43:44;;;;;;;26.65;20.10;;;15.00;96.80;;;;;;4968390;28;20463;-74
2022/09/08 00:46:09;;;;;;;24.52;20.80;;;15.00;96.90;;;;;;4964810;28;20035;-74
2022/09/08 00:48:48;;;;;;;25.75;20.63;;;15.00;97.00;;;;;;4973207;28;20033;-74
2022/09/08 00:51:16;;;;;;;25.17;20.02;;;15.00;97.00;;;;;;4970868;28;20246;-74
2022/09/08 00:53:43;;;;;;;26.15;20.08;;;14.90;97.00;;;;;;4974381;28;20355;-74
2022/09/08 00:56:09;;;;;;;24.15;19.17;;;14.80;96.90;;;;;;4969427;28;20529;-74
2022/09/08 00:58:36;;;;;;;27.15;21.23;;;14.80;96.90;;;;;;4973764;28;20074;-74
2022/09/08 01:01:04;;;;;;;25.20;20.35;;;14.80;97.10;;;;;;4969374;28;20026;-74
2022/09/08 01:03:31;;;;;;;24.55;21.15;;;14.80;97.10;;;;;;4972129;28;20054;-74
2022/09/08 01:06:16;;;;;;;25.27;20.20;;;14.70;97.00;;;;;;4970175;28;20109;-74
2022/09/08 01:14:47;;;;;;;30.60;23.25;;;14.70;97.10;;;;;;4955122;28;20171;-74
2022/09/08 01:17:19;;;;;;;28.42;22.35;;;14.60;97.10;;;;;;4952473;29;20035;-74
2022/09/08 01:19:47;;;;;;;26.42;21.40;;;14.60;97.10;;;;;;4963172;28;20471;-74
2022/09/08 01:22:19;;;;;;;26.70;21.17;;;14.60;97.20;;;;;;4969488;28;20042;-74
2022/09/08 01:25:31;;;;;;;29.20;22.08;;;14.60;97.20;;;;;;4968612;28;20034;-74
2022/09/08 01:28:10;;;;;;;26.38;20.67;;;14.60;97.20;;;;;;4971149;28;20031;-74
2022/09/08 01:30:36;;;;;;;28.98;20.98;;;14.50;97.20;;;;;;4952736;28;20034;-74
2022/09/08 01:33:07;;;;;;;33.30;22.58;;;14.50;97.20;;;;;;4967040;28;20030;-74
2022/09/08 01:35:34;;;;;;;;;;;14.50;97.20;;;;;;4962027;28;20028;-74
2022/09/08 01:38:00;;;;;;;31.45;22.65;;;14.50;97.50;;;;;;4955973;28;19922;-74
2022/09/08 01:40:26;;;;;;;31.65;23.77;;;14.60;97.50;;;;;;4969123;28;20026;-74
2022/09/08 01:42:51;;;;;;;33.58;25.55;;;14.60;97.50;;;;;;4967966;28;20035;-75
2022/09/08 01:45:17;;;;;;;39.38;25.73;;;14.70;97.80;;;;;;4970731;28;20447;-74
2022/09/08 01:47:42;;;;;;;37.72;26.50;;;14.60;97.60;;;;;;4971683;28;20102;-75
2022/09/08 01:50:09;;;;;;;37.53;26.25;;;14.60;97.60;;;;;;4970257;28;20113;-74
2022/09/08 01:52:34;;;;;;;33.83;25.80;;;14.60;97.60;;;;;;4965195;28;20059;-74
2022/09/08 01:55:00;;;;;;;37.25;27.27;;;14.50;97.50;;;;;;4957318;28;20027;-75
2022/09/08 01:57:26;;;;;;;36.75;26.55;;;14.60;97.70;;;;;;4968056;28;20035;-75
2022/09/08 01:59:51;;;;;;;37.65;26.63;;;14.60;97.60;;;;;;4970424;28;20033;-74
2022/09/08 02:02:17;;;;;;;37.00;27.55;;;14.60;97.80;;;;;;4970167;28;20061;-75
2022/09/08 02:04:43;;;;;;;40.03;26.80;;;14.60;97.70;;;;;;4966953;28;20111;-74
2022/09/08 02:07:09;;;;;;;37.05;26.52;;;14.50;97.70;;;;;;4973570;28;20500;-74
2022/09/08 02:09:35;;;;;;;41.20;28.08;;;14.50;97.80;;;;;;4968933;28;20130;-74
2022/09/08 02:12:01;;;;;;;37.67;26.75;;;14.50;97.80;;;;;;4972517;28;20443;-74
2022/09/08 02:14:27;;;;;;;38.95;27.95;;;14.50;97.90;;;;;;4969700;28;20045;-74
2022/09/08 02:16:52;;;;;;;35.65;26.90;;;14.50;97.90;;;;;;4971296;28;20039;-74
2022/09/08 02:19:18;;;;;;;36.90;27.58;;;14.50;97.90;;;;;;4968868;28;20110;-74
2022/09/08 02:21:43;;;;;;;37.97;27.75;;;14.50;97.90;;;;;;4956759;28;20070;-74
2022/09/08 02:24:09;;;;;;;35.33;26.73;;;14.50;97.90;;;;;;4965414;28;20448;-74
2022/09/08 02:26:34;;;;;;;40.53;26.40;;;14.50;98.00;;;;;;4968397;28;20038;-75
2022/09/08 02:29:00;;;;;;;46.17;29.45;;;14.50;98.00;;;;;;4962349;28;20038;-74
2022/09/08 02:31:27;;;;;;;46.45;30.15;;;14.50;98.00;;;;;;4972297;28;20034;-75
2022/09/08 02:33:53;;;;;;;43.42;30.90;;;14.60;98.20;;;;;;4964264;28;20109;-74
2022/09/08 02:36:19;;;;;;;47.47;31.80;;;14.70;98.20;;;;;;4974053;28;20125;-74
2022/09/08 02:38:49;;;;;;;49.08;33.28;;;14.80;98.20;;;;;;4973433;28;20420;-74
2022/09/08 02:41:16;;;;;;;50.20;34.75;;;14.80;98.30;;;;;;4973519;28;20015;-74
2022/09/08 02:43:41;;;;;;;51.83;35.55;;;14.90;98.30;;;;;;4963016;28;20043;-75
2022/09/08 02:46:08;;;;;;;53.63;34.28;;;14.90;98.30;;;;;;4968804;28;20046;-74
2022/09/08 02:48:34;;;;;;;56.47;36.05;;;14.90;98.30;;;;;;4973394;28;20030;-75
2022/09/08 02:51:01;;;;;;;53.78;35.55;;;15.00;98.40;;;;;;4968739;28;20034;-75
2022/09/08 02:53:28;;;;;;;60.28;37.72;;;15.00;98.40;;;;;;4964348;28;20023;-74
2022/09/08 02:55:54;;;;;;;57.08;36.55;;;15.00;98.40;;;;;;4957515;28;20045;-75
2022/09/08 02:58:19;;;;;;;59.72;35.22;;;15.00;98.50;;;;;;4973100;28;20446;-75
2022/09/08 03:00:45;;;;;;;59.88;36.28;;;14.90;98.40;;;;;;4970758;28;20034;-73
2022/09/08 03:03:11;;;;;;;55.00;36.03;;;14.90;98.50;;;;;;4974361;28;20082;-72
2022/09/08 03:05:36;;;;;;;52.97;35.17;;;14.90;98.40;;;;;;4975350;28;20027;-72
2022/09/08 03:08:04;;;;;;;55.15;35.03;;;14.90;98.50;;;;;;4965759;28;20089;-73
2022/09/08 03:10:30;;;;;;;53.65;33.88;;;14.90;98.50;;;;;;4933749;28;1000013;-73
2022/09/08 03:12:56;;;;;;;52.40;35.67;;;14.90;98.50;;;;;;4960660;28;20481;-72
2022/09/08 03:15:24;;;;;;;50.20;33.40;;;14.90;98.50;;;;;;4972963;28;20057;-72
2022/09/08 03:17:50;;;;;;;53.90;32.83;;;14.80;98.40;;;;;;4973014;28;20434;-73
2022/09/08 03:20:16;;;;;;;50.30;32.92;;;14.80;98.40;;;;;;4963070;28;20030;-73
2022/09/08 03:22:42;;;;;;;49.17;31.45;;;14.80;98.40;;;;;;4971919;28;20105;-72
2022/09/08 03:25:08;;;;;;;46.30;30.25;;;14.80;98.50;;;;;;4968186;28;20098;-75
2022/09/08 03:27:34;;;;;;;43.42;30.38;;;14.80;98.40;;;;;;4975403;28;20105;-73
2022/09/08 03:29:59;;;;;;;39.22;27.52;;;14.70;98.40;;;;;;4969517;28;20043;-73
2022/09/08 03:32:25;;;;;;;39.90;27.92;;;14.70;98.40;;;;;;4963140;28;20035;-73
2022/09/08 03:34:51;;;;;;;40.17;28.88;;;14.70;98.40;;;;;;4972555;28;20510;-73
2022/09/08 03:37:16;;;;;;;39.83;27.48;;;14.70;98.30;;;;;;4972505;28;20471;-73
2022/09/08 03:39:42;;;;;;;41.42;27.30;;;14.60;98.30;;;;;;4975159;28;20023;-73
2022/09/08 03:42:07;;;;;;;37.92;26.38;;;14.60;98.30;;;;;;4968008;28;20031;-73
2022/09/08 03:44:33;;;;;;;39.38;26.30;;;14.60;98.30;;;;;;4972306;28;20486;-73
2022/09/08 03:46:59;;;;;;;36.72;26.65;;;14.60;98.30;;;;;;4973127;28;20031;-73
2022/09/08 03:49:25;;;;;;;37.72;25.98;;;14.60;98.20;;;;;;4966292;28;20466;-73
2022/09/08 03:51:51;;;;;;;37.33;26.20;;;14.60;98.20;;;;;;4973127;28;20027;-73
2022/09/08 03:57:01;;;;;;;35.15;25.60;;;14.50;98.20;;;;;;4969084;28;20026;-73
2022/09/08 03:59:28;;;;;;;37.45;25.98;;;14.50;98.20;;;;;;4972136;28;20031;-73
2022/09/08 04:01:53;;;;;;;34.45;24.98;;;14.60;98.20;;;;;;4959145;28;21752;-73
2022/09/08 04:04:22;;;;;;;34.58;25.10;;;14.50;98.20;;;;;;4959334;28;20022;-73
2022/09/08 04:06:48;;;;;;;34.45;24.77;;;14.50;98.20;;;;;;4969526;28;20050;-73
2022/09/08 04:09:13;;;;;;;33.15;25.52;;;14.50;98.10;;;;;;4973405;28;20063;-73
2022/09/08 04:11:39;;;;;;;32.97;24.60;;;14.50;98.10;;;;;;4970955;28;20053;-73
2022/09/08 04:14:05;;;;;;;35.22;24.58;;;14.50;98.10;;;;;;4972272;28;20808;-73
2022/09/08 04:16:30;;;;;;;32.33;23.55;;;14.50;98.00;;;;;;4972528;28;20034;-73
2022/09/08 04:18:55;;;;;;;32.75;23.63;;;14.50;98.00;;;;;;4962027;28;20045;-73
2022/09/08 04:21:21;;;;;;;31.70;22.48;;;14.50;98.00;;;;;;4972770;28;20034;-73
2022/09/08 04:23:46;;;;;;;29.52;22.63;;;14.50;98.00;;;;;;4961052;28;20086;-73
2022/09/08 04:26:13;;;;;;;29.38;23.80;;;14.40;97.90;;;;;;4963570;28;20554;-73
2022/09/08 04:28:39;;;;;;;29.45;23.17;;;14.30;97.90;;;;;;4968205;28;20777;-72
2022/09/08 04:31:07;;;;;;;31.65;23.40;;;14.30;97.90;;;;;;4969066;28;20467;-73
2022/09/08 04:33:33;;;;;;;32.05;22.02;;;14.30;97.90;;;;;;4971795;28;20090;-73
2022/09/08 04:36:04;;;;;;;27.33;22.08;;;14.30;97.90;;;;;;4969868;28;20467;-73
2022/09/08 04:38:30;;;;;;;29.23;22.17;;;14.30;97.80;;;;;;4973014;28;20046;-73
2022/09/08 04:41:01;;;;;;;29.17;22.25;;;14.30;97.80;;;;;;4970324;28;20026;-73
2022/09/08 04:43:27;;;;;;;28.48;22.40;;;14.30;97.80;;;;;;4970769;28;20366;-73
2022/09/08 04:45:52;;;;;;;29.73;21.92;;;14.20;97.80;;;;;;4963754;28;20039;-73
2022/09/08 04:48:18;;;;;;;28.85;20.90;;;14.20;97.80;;;;;;4972461;28;20030;-73
2022/09/08 04:50:43;;;;;;;27.42;22.27;;;14.20;97.80;;;;;;4965072;28;20101;-73
2022/09/08 04:53:09;;;;;;;27.77;21.15;;;14.20;97.70;;;;;;4971881;28;20037;-73
2022/09/08 04:55:38;;;;;;;29.88;21.98;;;14.20;97.80;;;;;;4961245;28;20035;-73
2022/09/08 04:58:03;;;;;;;28.15;21.42;;;14.20;97.80;;;;;;4952066;28;20379;-75
2022/09/08 05:00:29;;;;;;;26.73;20.38;;;14.20;97.80;;;;;;4953509;28;20027;-75
2022/09/08 05:02:56;;;;;;;26.95;21.02;;;14.20;97.80;;;;;;4965417;28;20018;-72
2022/09/08 05:05:21;;;;;;;28.08;21.67;;;14.30;97.80;;;;;;4966941;28;20045;-74
2022/09/08 05:07:49;;;;;;;27.50;21.75;;;14.30;97.80;;;;;;4967177;28;20030;-75
2022/09/08 05:10:15;;;;;;;28.33;21.75;;;14.40;97.80;;;;;;4955990;28;20061;-74
2022/09/08 05:12:40;;;;;;;24.27;19.65;;;14.40;97.70;;;;;;4964475;28;20038;-74
2022/09/08 05:15:07;;;;;;;27.80;19.85;;;14.50;97.80;;;;;;4969931;28;20038;-74
2022/09/08 05:17:32;;;;;;;24.27;19.58;;;14.50;97.70;;;;;;4952873;28;20140;-73
2022/09/08 05:19:58;;;;;;;26.27;19.42;;;14.50;97.60;;;;;;4966633;28;20026;-73
2022/09/08 05:22:23;;;;;;;24.98;19.33;;;14.50;97.50;;;;;;4966792;28;20035;-73
2022/09/08 05:24:50;;;;;;;23.38;17.15;;;14.50;97.40;;;;;;4956379;28;20074;-73
2022/09/08 05:27:15;;;;;;;21.17;17.42;;;14.60;97.30;;;;;;4969258;28;20465;-73
2022/09/08 05:29:41;;;;;;;21.33;16.73;;;14.60;97.20;;;;;;4961850;28;20047;-73
2022/09/08 05:32:06;;;;;;;19.38;16.27;;;14.60;97.10;;;;;;4963324;28;20391;-73
2022/09/08 05:34:32;;;;;;;18.00;14.70;;;14.70;97.00;;;;;;4954776;28;20042;-73
2022/09/08 05:36:57;;;;;;;20.17;15.43;;;14.70;96.80;;;;;;4971799;28;20026;-73
2022/09/08 05:39:23;;;;;;;19.17;14.07;;;14.70;96.70;;;;;;4954336;28;20027;-73
2022/09/08 05:41:48;;;;;;;18.15;15.00;;;14.80;96.60;;;;;;4965963;28;20158;-73
2022/09/08 05:44:14;;;;;;;17.27;13.75;;;14.80;96.50;;;;;;4967078;28;20073;-73
2022/09/08 05:46:40;;;;;;;14.85;12.82;;;14.90;96.20;;;;;;4967406;28;20026;-73
2022/09/08 05:49:05;;;;;;;17.45;13.52;;;15.00;96.10;;;;;;4971646;28;20034;-73
2022/09/08 05:51:32;;;;;;;17.15;12.27;;;15.00;95.80;;;;;;4969576;28;20046;-73
2022/09/08 05:53:59;;;;;;;16.95;12.82;;;15.00;95.60;;;;;;4971449;28;20019;-73
2022/09/08 05:56:24;;;;;;;15.40;12.20;;;15.00;95.40;;;;;;4969425;28;20027;-73
2022/09/08 05:58:52;;;;;;;14.60;12.50;;;15.10;95.30;;;;;;4971217;28;20098;-73
2022/09/08 06:01:17;;;;;;;12.73;10.85;;;15.10;95.20;;;;;;4971363;28;20474;-73
2022/09/08 06:03:43;;;;;;;17.77;10.85;;;15.20;94.80;;;;;;4965881;28;20036;-73
2022/09/08 06:06:14;;;;;;;15.15;10.93;;;15.20;94.50;;;;;;4964987;28;20031;-73
2022/09/08 06:08:41;;;;;;;13.65;10.35;;;15.30;94.40;;;;;;4975150;28;20027;-73
2022/09/08 06:11:07;;;;;;;14.35;10.85;;;15.40;94.30;;;;;;4969401;28;20368;-74
2022/09/08 06:13:34;;;;;;;13.05;10.07;;;15.40;93.90;;;;;;4974774;28;20515;-74
2022/09/08 06:16:07;;;;;;;11.90;9.70;;;15.40;93.80;;;;;;4971476;28;20112;-74
2022/09/08 06:18:37;;;;;;;14.25;9.77;;;15.50;93.50;;;;;;4968543;28;20058;-73
2022/09/08 06:21:08;;;;;;;14.60;8.80;;;15.50;93.10;;;;;;4974954;28;20031;-73
2022/09/08 06:23:33;;;;;;;11.95;8.40;;;15.50;92.40;;;;;;4965721;28;20536;-72
2022/09/08 06:26:33;;;;;;;11.02;8.38;;;15.50;92.20;;;;;;4969450;28;20115;-72
2022/09/08 06:29:11;;;;;;;15.48;8.65;;;15.50;92.00;;;;;;4957121;28;20039;-72
2022/09/08 06:32:06;;;;;;;10.38;7.85;;;15.60;91.80;;;;;;4969230;28;20030;-75
2022/09/08 06:34:40;;;;;;;9.32;7.32;;;15.60;91.30;;;;;;4946490;28;20121;-75
2022/09/08 06:37:11;;;;;;;14.15;7.28;;;15.60;91.10;;;;;;4967551;28;20030;-75
2022/09/08 06:39:44;;;;;;;11.20;7.65;;;15.60;90.50;;;;;;4977020;28;20374;-75
2022/09/08 06:42:16;;;;;;;13.00;7.18;;;15.60;90.10;;;;;;4966512;28;20343;-75
2022/09/08 06:44:42;;;;;;;;;;;15.60;90.10;;;;;;4970065;28;20459;-75
2022/09/08 06:47:14;;;;;;;12.27;7.18;;;15.60;90.10;;;;;;4974096;28;19993;-75
2022/09/08 06:49:40;;;;;;;14.05;7.93;;;15.60;90.10;;;;;;4963679;28;20050;-75
2022/09/08 06:52:26;;;;;;;11.43;7.97;;;15.70;90.10;;;;;;4971730;28;20022;-75
2022/09/08 06:55:14;;;;;;;10.27;7.53;;;15.70;89.80;;;;;;4971938;28;20027;-76
2022/09/08 06:58:01;;;;;;;9.52;7.47;;;15.60;89.60;;;;;;4969256;28;20035;-75
2022/09/08 07:00:33;;;;;;;13.70;7.90;;;15.60;89.60;;;;;;4965497;28;20427;-75
2022/09/08 07:03:12;;;;;;;10.25;6.78;;;15.60;89.60;;;;;;4963733;28;20157;-75
2022/09/08 07:05:57;;;;;;;11.65;7.40;;;15.50;89.50;;;;;;4968284;28;20065;-75
2022/09/08 07:08:53;;;;;;;10.32;6.80;;;15.60;89.90;;;;;;4973216;28;20029;-76
2022/09/08 07:11:41;;;;;;;9.00;6.93;;;15.60;89.80;;;;;;4973951;28;20074;-75
2022/09/08 07:14:27;;;;;;;11.85;7.28;;;15.70;89.70;;;;;;4960853;28;20034;-75
2022/09/08 07:17:09;;;;;;;9.88;7.25;;;15.70;89.70;;;;;;4960298;28;20022;-75
2022/09/08 07:19:53;;;;;;;9.70;7.13;;;15.70;89.80;;;;;;4969408;28;20041;-75
2022/09/08 07:22:39;;;;;;;12.32;7.88;;;15.70;89.60;;;;;;4967180;28;20430;-74
2022/09/08 07:25:25;;;;;;;10.57;6.82;;;15.70;89.70;;;;;;4967837;28;20081;-73
2022/09/08 07:28:14;;;;;;;12.85;7.28;;;15.50;89.20;;;;;;4968631;28;20066;-74
2022/09/08 07:30:41;;;;;;;9.48;6.70;;;15.60;89.50;;;;;;4966871;28;20051;-74
2022/09/08 07:33:24;;;;;;;10.80;6.20;;;15.60;89.20;;;;;;4965789;28;20038;-73
2022/09/08 07:36:04;;;;;;;10.32;6.10;;;15.60;89.00;;;;;;4975666;28;20085;-73
2022/09/08 07:38:47;;;;;;;8.77;6.10;;;15.60;88.50;;;;;;4964142;28;20031;-73
2022/09/08 07:41:36;;;;;;;11.40;6.43;;;15.80;88.90;;;;;;4955790;28;20080;-74
2022/09/08 07:44:11;;;;;;;9.30;6.18;;;15.80;88.60;;;;;;4958719;28;20047;-73
2022/09/08 07:46:49;;;;;;;11.07;6.22;;;15.80;88.10;;;;;;4956504;28;20041;-73
2022/09/08 07:49:26;;;;;;;9.52;6.45;;;15.90;88.30;;;;;;4963661;28;20054;-73
2022/09/08 07:52:06;;;;;;;9.15;5.80;;;15.90;88.00;;;;;;4966504;28;20026;-73
2022/09/08 07:54:56;;;;;;;9.40;6.23;;;15.80;87.70;;;;;;4964164;28;20027;-73
2022/09/08 07:57:44;;;;;;;9.52;6.20;;;15.80;88.00;;;;;;4972312;28;20353;-73
2022/09/08 08:00:28;;;;;;;8.07;5.68;;;15.90;88.10;;;;;;4972624;28;20035;-73
2022/09/08 08:03:08;;;;;;;10.05;6.00;;;15.90;87.90;;;;;;4961841;28;20026;-74
2022/09/08 08:05:45;;;;;;;8.65;5.93;;;15.90;87.80;;;;;;4967701;28;20031;-73
2022/09/08 08:08:43;;;;;;;10.43;5.53;;;15.80;87.30;;;;;;4971133;28;20023;-73
2022/09/08 08:11:42;;;;;;;8.30;5.68;;;15.70;87.30;;;;;;4969006;28;20031;-74
2022/09/08 08:14:44;;;;;;;9.50;5.38;;;15.80;87.70;;;;;;4970064;28;20034;-73
2022/09/08 08:17:13;;;;;;;12.35;5.45;;;15.80;87.40;;;;;;4965618;28;20046;-74
2022/09/08 08:20:16;;;;;;;8.55;5.95;;;15.80;87.30;;;;;;4966422;28;20026;-73
2022/09/08 08:23:12;;;;;;;6.28;4.90;;;15.80;86.90;;;;;;4955987;28;20526;-73
2022/09/08 08:26:03;;;;;;;9.60;4.97;;;15.70;86.40;;;;;;4966227;28;20031;-74
2022/09/08 08:28:42;;;;;;;8.97;5.97;;;15.70;86.50;;;;;;4960319;28;20027;-71
2022/09/08 08:31:37;;;;;;;7.15;5.25;;;15.80;86.80;;;;;;4965717;28;20066;-74
2022/09/08 08:34:10;;;;;;;10.07;5.90;;;15.90;86.70;;;;;;4969689;28;20032;-75
2022/09/08 08:36:42;;;;;;;10.20;5.43;;;15.80;85.90;;;;;;4967143;28;20018;-75
2022/09/08 08:39:22;;;;;;;8.27;5.40;;;16.00;85.80;;;;;;4973927;28;20402;-75
2022/09/08 08:42:12;;;;;;;7.43;4.77;;;16.10;85.60;;;;;;4961655;28;20027;-75
2022/09/08 08:45:20;;;;;;;9.47;5.17;;;16.10;85.80;;;;;;4969759;28;20027;-75
2022/09/08 08:48:07;;;;;;;9.85;5.13;;;16.10;85.00;;;;;;4958122;28;20549;-73
2022/09/08 08:50:46;;;;;;;7.88;4.78;;;16.10;85.60;;;;;;4964783;28;20027;-73
2022/09/08 08:53:22;;;;;;;8.35;5.35;;;16.30;86.00;;;;;;4960906;28;20034;-73
2022/09/08 08:56:17;;;;;;;9.95;5.03;;;16.20;85.50;;;;;;4968463;28;20505;-72
2022/09/08 08:58:55;;;;;;;8.13;4.85;;;16.20;85.10;;;;;;4958839;28;20467;-74
2022/09/08 09:01:55;;;;;;;8.45;5.15;;;16.00;85.40;;;;;;4969060;28;20031;-74
2022/09/08 09:05:05;;;;;;;7.82;5.00;;;16.40;85.60;;;;;;4966302;28;20018;-74
2022/09/08 09:07:40;;;;;;;6.43;4.53;;;16.40;84.80;;;;;;4966728;28;20038;-74
2022/09/08 09:10:36;;;;;;;8.88;4.93;;;16.60;85.30;;;;;;4960988;28;20047;-74
2022/09/08 09:13:40;;;;;;;7.95;4.75;;;16.60;84.60;;;;;;4967400;28;20031;-73
2022/09/08 09:16:12;;;;;;;9.68;4.55;;;16.70;84.00;;;;;;4966639;28;20070;-74
2022/09/08 09:19:01;;;;;;;6.93;4.55;;;16.80;84.20;;;;;;4970066;28;20034;-74
2022/09/08 09:21:50;;;;;;;9.95;4.93;;;17.00;84.30;;;;;;4969583;28;20527;-73
2022/09/08 09:24:37;;;;;;;8.10;4.45;;;16.90;84.00;;;;;;4966642;28;20023;-73
2022/09/08 09:27:25;;;;;;;8.25;4.20;;;16.90;83.50;;;;;;4960524;28;20085;-74
2022/09/08 09:30:12;;;;;;;8.95;4.47;;;16.90;84.00;;;;;;4966242;28;20055;-74
2022/09/08 09:32:49;;;;;;;8.00;4.75;;;16.90;84.00;;;;;;4952243;28;20031;-73
2022/09/08 09:35:52;;;;;;;9.25;4.40;;;16.80;84.20;;;;;;4965944;28;20035;-74
2022/09/08 09:38:52;;;;;;;8.52;4.25;;;16.70;84.50;;;;;;4968563;28;20038;-73
2022/09/08 09:41:54;;;;;;;7.32;4.45;;;16.70;84.30;;;;;;4965910;28;20041;-74
2022/09/08 09:44:42;;;;;;;7.05;4.60;;;16.60;84.20;;;;;;4968803;28;20126;-74
2022/09/08 09:47:47;;;;;;;7.97;4.95;;;16.60;84.40;;;;;;4971467;28;20019;-74
2022/09/08 09:50:31;;;;;;;10.05;4.80;;;16.70;85.10;;;;;;4971779;28;20049;-73
2022/09/08 09:53:16;;;;;;;8.43;4.30;;;16.70;85.30;;;;;;4966294;28;20490;-74
2022/09/08 09:55:44;;;;;;;6.82;3.97;;;16.70;84.90;;;;;;4967104;28;20031;-74
2022/09/08 09:58:41;;;;;;;8.90;4.15;;;16.50;84.30;;;;;;4972634;28;20481;-74
2022/09/08 10:01:34;;;;;;;8.50;4.25;;;16.50;85.10;;;;;;4971081;28;20026;-73
2022/09/08 10:04:37;;;;;;;8.43;4.65;;;16.40;85.10;;;;;;4972766;28;20031;-73
2022/09/08 10:08:05;;;;;;;11.45;4.43;;;16.10;85.80;;;;;;4973634;28;20022;-73
2022/09/08 10:11:16;;;;;;;7.18;4.68;;;16.00;87.80;;;;;;4967732;28;20050;-74
2022/09/08 10:14:12;;;;;;;7.70;4.28;;;15.60;88.40;;;;;;4972130;28;20031;-73
2022/09/08 10:17:05;;;;;;;7.53;4.15;;;15.40;89.50;;;;;;4970890;28;20506;-73
2022/09/08 10:19:49;;;;;;;7.82;5.25;;;15.30;90.30;;;;;;4961604;28;20039;-73
2022/09/08 10:22:39;;;;;;;8.32;4.78;;;15.30;91.00;;;;;;4965159;28;20038;-73
2022/09/08 10:25:35;;;;;;;13.80;5.53;;;14.90;91.30;;;;;;4968288;28;20106;-73
2022/09/08 10:28:01;;;;;;;8.18;5.30;;;14.80;92.90;;;;;;4961473;28;20055;-73
2022/09/08 10:30:51;;;;;;;10.10;6.13;;;14.60;93.60;;;;;;4969921;28;20089;-78
2022/09/08 10:33:16;;;;;;;7.88;5.25;;;14.60;94.00;;;;;;4973319;28;20110;-73
2022/09/08 10:35:45;;;;;;;9.90;6.07;;;14.50;94.00;;;;;;4975202;28;20146;-73
2022/09/08 10:38:13;;;;;;;9.80;5.90;;;14.60;94.50;;;;;;4962271;28;20031;-74
2022/09/08 10:41:14;;;;;;;10.05;6.72;;;14.50;94.40;;;;;;4970992;28;20106;-73
2022/09/08 10:44:08;;;;;;;8.47;6.10;;;14.60;94.60;;;;;;4973861;28;20038;-73
2022/09/08 10:47:11;;;;;;;10.75;7.25;;;14.60;94.70;;;;;;4974616;28;20023;-73
2022/09/08 10:50:12;;;;;;;10.93;7.32;;;14.80;95.20;;;;;;4975009;28;20077;-73
2022/09/08 10:53:09;;;;;;;12.30;7.28;;;14.70;95.30;;;;;;4961789;28;20030;-73
2022/09/08 10:56:04;;;;;;;11.50;6.53;;;14.80;95.70;;;;;;4975167;28;20037;-74
2022/09/08 10:59:06;;;;;;;10.65;7.45;;;14.70;95.40;;;;;;4964103;28;20467;-73
2022/09/08 11:01:49;;;;;;;10.82;7.05;;;14.90;95.80;;;;;;4969170;28;20022;-73
2022/09/08 11:04:36;;;;;;;10.30;6.82;;;14.90;95.50;;;;;;4975085;28;20027;-73
2022/09/08 11:07:20;;;;;;;12.90;7.32;;;14.80;95.40;;;;;;4961227;28;20023;-73
2022/09/08 11:10:15;;;;;;;10.90;7.65;;;14.80;95.40;;;;;;4963628;28;20058;-74
2022/09/08 11:13:14;;;;;;;8.90;6.72;;;14.80;95.60;;;;;;4975295;28;20026;-74
2022/09/08 11:15:47;;;;;;;13.20;7.22;;;14.90;95.60;;;;;;4973679;28;20395;-74
2022/09/08 11:18:22;;;;;;;10.80;6.97;;;15.00;95.90;;;;;;4973914;28;20034;-73
2022/09/08 11:20:52;;;;;;;9.32;6.95;;;15.00;95.80;;;;;;4963135;28;20058;-73
2022/09/08 11:23:36;;;;;;;9.98;6.70;;;15.00;95.70;;;;;;4956497;28;20023;-73
2022/09/08 11:26:23;;;;;;;9.50;6.30;;;15.00;95.70;;;;;;4974157;28;20051;-73
2022/09/08 11:29:09;;;;;;;10.18;6.80;;;15.10;95.80;;;;;;4974772;28;20031;-73
2022/09/08 11:31:58;;;;;;;10.73;7.00;;;15.30;95.80;;;;;;4973547;28;20035;-73
2022/09/08 11:34:58;;;;;;;11.43;7.47;;;15.30;95.90;;;;;;4973332;28;20031;-74
2022/09/08 11:37:27;;;;;;;11.88;7.35;;;15.50;96.00;;;;;;4976105;28;20133;-74
2022/09/08 11:40:05;;;;;;;11.98;7.80;;;15.20;95.50;;;;;;4975691;28;20023;-74
2022/09/08 11:43:08;;;;;;;9.82;7.50;;;15.40;95.80;;;;;;4957636;28;20038;-73
2022/09/08 11:45:49;;;;;;;12.93;7.30;;;15.40;95.80;;;;;;4952919;28;20023;-74
2022/09/08 11:48:39;;;;;;;12.93;6.82;;;15.40;95.90;;;;;;4955970;28;20060;-73
2022/09/08 11:51:33;;;;;;;12.13;7.13;;;15.30;95.50;;;;;;4970984;28;20459;-73
2022/09/08 11:54:31;;;;;;;10.85;7.53;;;15.40;95.60;;;;;;4958877;28;20054;-73
2022/09/08 11:57:21;;;;;;;10.70;7.22;;;15.40;95.70;;;;;;4968052;28;20066;-73
2022/09/08 12:00:14;;;;;;;11.45;7.10;;;15.40;95.60;;;;;;4975029;28;20110;-74
2022/09/08 12:03:17;;;;;;;10.75;8.07;;;15.50;95.70;;;;;;4972513;28;20031;-74
2022/09/08 12:06:19;;;;;;;10.80;7.00;;;15.60;95.60;;;;;;4973913;28;20353;-74
2022/09/08 12:09:09;;;;;;;10.13;7.32;;;15.50;95.40;;;;;;4964120;28;20126;-74
2022/09/08 12:11:56;;;;;;;13.85;7.22;;;15.20;94.90;;;;;;4974698;28;20029;-74
2022/09/08 12:14:32;;;;;;;10.57;6.32;;;15.30;95.30;;;;;;4973729;28;20317;-74
2022/09/08 12:17:33;;;;;;;11.02;7.03;;;15.30;95.30;;;;;;4972444;28;20027;-74
2022/09/08 12:20:30;;;;;;;10.63;6.55;;;15.30;95.30;;;;;;4970475;28;20046;-74
2022/09/08 12:23:16;;;;;;;11.65;7.10;;;15.00;95.20;;;;;;4970780;28;20033;-73
2022/09/08 12:26:14;;;;;;;9.98;7.50;;;15.10;95.80;;;;;;4947494;28;20101;-74
2022/09/08 12:29:06;;;;;;;13.27;7.68;;;15.20;95.90;;;;;;4972898;28;20406;-75
2022/09/08 12:32:02;;;;;;;11.82;8.18;;;15.00;95.90;;;;;;4968115;28;20035;-73
2022/09/08 12:34:50;;;;;;;12.10;8.05;;;14.90;95.90;;;;;;4955225;29;20495;-74
2022/09/08 12:37:37;;;;;;;15.13;8.82;;;14.90;96.20;;;;;;4958857;28;20045;-74
2022/09/08 12:40:25;;;;;;;14.88;8.95;;;14.80;96.40;;;;;;4969529;28;20464;-74
2022/09/08 12:43:12;;;;;;;13.13;9.73;;;14.90;96.70;;;;;;4966245;28;20360;-74
2022/09/08 12:45:49;;;;;;;11.80;9.75;;;15.00;97.00;;;;;;4968831;28;20104;-75
2022/09/08 12:48:34;;;;;;;12.27;9.85;;;15.00;97.10;;;;;;4971941;28;20030;-74
2022/09/08 12:51:30;;;;;;;15.55;10.00;;;15.00;97.00;;;;;;4969964;28;20042;-74
2022/09/08 12:54:08;;;;;;;16.73;9.98;;;14.90;96.90;;;;;;4961476;28;20331;-74
2022/09/08 12:56:48;;;;;;;15.38;10.38;;;15.00;97.10;;;;;;4960470;28;20019;-74
2022/09/08 12:59:27;;;;;;;15.00;10.02;;;15.10;97.30;;;;;;4959849;28;20455;-74
2022/09/08 13:02:14;;;;;;;16.17;10.52;;;15.00;97.20;;;;;;4971799;28;20027;-74
2022/09/08 13:05:01;;;;;;;13.95;9.80;;;15.10;97.40;;;;;;4972334;28;20031;-74
2022/09/08 13:07:39;;;;;;;11.68;9.82;;;15.10;97.50;;;;;;4962151;28;20058;-74
2022/09/08 13:10:10;;;;;;;15.88;10.18;;;15.10;97.40;;;;;;4965716;28;20483;-74
2022/09/08 13:12:55;;;;;;;14.65;9.70;;;15.00;97.40;;;;;;4960174;28;20039;-74
2022/09/08 13:15:21;;;;;;;12.60;9.27;;;14.90;97.30;;;;;;4957784;28;20026;-74
2022/09/08 13:18:13;;;;;;;16.80;10.82;;;14.90;97.50;;;;;;4961024;28;20038;-74
2022/09/08 13:20:40;;;;;;;16.77;10.13;;;15.00;97.70;;;;;;4966591;28;20109;-75
2022/09/08 13:23:15;;;;;;;14.48;10.75;;;15.00;97.70;;;;;;4965137;28;20023;-76
2022/09/08 13:26:18;;;;;;;15.23;11.07;;;15.00;97.70;;;;;;4961065;28;20027;-75
2022/09/08 13:28:49;;;;;;;15.88;10.52;;;15.00;97.70;;;;;;4960630;28;20026;-75
2022/09/08 13:31:58;;;;;;;12.77;10.43;;;15.00;97.80;;;;;;4965339;28;20474;-74